createdAt,value
2019-03-29T00:01:05.582Z,9.70
2019-03-29T00:03:33.418Z,9.70
2019-03-29T00:06:02.995Z,9.70
2019-03-29T00:08:30.892Z,9.70
2019-03-29T00:10:58.776Z,9.70
2019-03-29T00:13:26.822Z,9.70
2019-03-29T00:15:54.769Z,9.70
2019-03-29T00:18:22.705Z,9.70
2019-03-29T00:20:50.651Z,9.70
2019-03-29T00:23:18.630Z,9.70
2019-03-29T00:25:46.442Z,9.70
2019-03-29T00:28:14.394Z,9.60
2019-03-29T00:30:42.242Z,9.60
2019-03-29T00:33:10.112Z,9.60
2019-03-29T00:35:38.153Z,9.60
2019-03-29T00:38:06.216Z,9.50
2019-03-29T00:40:34.133Z,9.50
2019-03-29T00:43:02.071Z,9.50
2019-03-29T00:45:30.135Z,9.50
2019-03-29T00:47:58.629Z,9.50
2019-03-29T00:50:26.539Z,9.40
2019-03-29T00:52:54.447Z,9.40
2019-03-29T00:55:22.309Z,9.30
2019-03-29T00:57:50.586Z,9.40
2019-03-29T01:00:18.522Z,9.30
2019-03-29T01:02:46.491Z,9.30
2019-03-29T01:05:14.512Z,9.30
2019-03-29T01:07:42.371Z,9.30
2019-03-29T01:10:11.911Z,9.30
2019-03-29T01:12:39.779Z,9.30
2019-03-29T01:15:08.953Z,9.30
2019-03-29T01:17:36.902Z,9.30
2019-03-29T01:20:07.945Z,9.30
2019-03-29T01:22:35.872Z,9.30
2019-03-29T01:25:04.580Z,9.30
2019-03-29T01:27:32.496Z,9.40
2019-03-29T01:30:00.378Z,9.40
2019-03-29T01:32:28.358Z,9.40
2019-03-29T01:34:56.588Z,9.40
2019-03-29T01:37:27.180Z,9.40
2019-03-29T01:39:56.260Z,9.40
2019-03-29T01:42:24.312Z,9.40
2019-03-29T01:44:52.160Z,9.40
2019-03-29T01:47:21.321Z,9.40
2019-03-29T01:49:49.307Z,9.40
2019-03-29T01:52:17.191Z,9.40
2019-03-29T01:54:45.088Z,9.40
2019-03-29T01:57:14.778Z,9.40
2019-03-29T01:59:43.818Z,9.40
2019-03-29T02:02:13.188Z,9.40
2019-03-29T02:04:42.778Z,9.40
2019-03-29T02:07:11.939Z,9.40
2019-03-29T02:09:40.145Z,9.40
2019-03-29T02:12:08.033Z,9.40
2019-03-29T02:14:36.127Z,9.40
2019-03-29T02:17:03.970Z,9.40
2019-03-29T02:19:31.976Z,9.40
2019-03-29T02:22:00.087Z,9.40
2019-03-29T02:24:28.395Z,9.40
2019-03-29T02:26:56.379Z,9.40
2019-03-29T02:29:24.516Z,9.30
2019-03-29T02:31:52.408Z,9.30
2019-03-29T02:34:20.293Z,9.30
2019-03-29T02:36:49.763Z,9.30
2019-03-29T02:39:17.842Z,9.30
2019-03-29T02:41:46.845Z,9.30
2019-03-29T02:44:18.388Z,9.30
2019-03-29T02:46:46.300Z,9.30
2019-03-29T02:49:14.261Z,9.30
2019-03-29T02:51:42.170Z,9.30
2019-03-29T02:54:11.250Z,9.30
2019-03-29T02:56:39.125Z,9.30
2019-03-29T02:59:07.149Z,9.30
2019-03-29T03:01:35.213Z,9.30
2019-03-29T03:04:03.070Z,9.30
2019-03-29T03:06:30.960Z,9.30
2019-03-29T03:09:13.095Z,9.30
2019-03-29T03:11:29.701Z,9.30
2019-03-29T03:13:57.745Z,9.30
2019-03-29T03:16:25.625Z,9.30
2019-03-29T03:18:54.538Z,9.30
2019-03-29T03:21:23.561Z,9.30
2019-03-29T03:23:51.410Z,9.30
2019-03-29T03:26:19.404Z,9.30
2019-03-29T03:28:47.211Z,9.30
2019-03-29T03:31:15.387Z,9.40
2019-03-29T03:33:43.371Z,9.30
2019-03-29T03:36:11.330Z,9.30
2019-03-29T03:38:39.143Z,9.40
2019-03-29T03:41:07.029Z,9.30
2019-03-29T03:43:36.504Z,9.30
2019-03-29T03:46:07.233Z,9.30
2019-03-29T03:48:35.141Z,9.30
2019-03-29T03:51:03.034Z,9.40
2019-03-29T03:53:30.842Z,9.30
2019-03-29T03:55:58.759Z,9.40
2019-03-29T03:58:28.280Z,9.40
2019-03-29T04:00:56.552Z,9.40
2019-03-29T04:03:24.699Z,9.30
2019-03-29T04:05:52.556Z,9.30
2019-03-29T04:08:20.527Z,9.30
2019-03-29T04:10:48.908Z,9.30
2019-03-29T04:13:16.763Z,9.30
2019-03-29T04:15:44.652Z,9.30
2019-03-29T04:18:15.704Z,9.30
2019-03-29T04:20:42.223Z,9.40
2019-03-29T04:23:10.177Z,9.30
2019-03-29T04:25:38.400Z,9.30
2019-03-29T04:28:07.586Z,9.40
2019-03-29T04:30:35.603Z,9.40
2019-03-29T04:33:03.633Z,9.40
2019-03-29T04:35:32.520Z,9.40
2019-03-29T04:38:00.529Z,9.40
2019-03-29T04:40:29.470Z,9.40
2019-03-29T04:42:57.347Z,9.50
2019-03-29T04:45:26.845Z,9.50
2019-03-29T04:47:56.001Z,9.50
2019-03-29T04:50:23.998Z,9.50
2019-03-29T04:52:51.904Z,9.50
2019-03-29T04:55:19.754Z,9.50
2019-03-29T04:57:47.819Z,9.50
2019-03-29T05:00:16.318Z,9.60
2019-03-29T05:02:44.321Z,9.60
2019-03-29T05:05:12.237Z,9.50
2019-03-29T05:07:40.163Z,9.50
2019-03-29T05:10:21.080Z,9.60
2019-03-29T05:12:40.658Z,9.60
2019-03-29T05:15:11.728Z,9.60
2019-03-29T05:17:39.760Z,9.60
2019-03-29T05:20:08.296Z,9.60
2019-03-29T05:22:36.419Z,9.60
2019-03-29T05:25:04.906Z,9.70
2019-03-29T05:27:34.963Z,9.70
2019-03-29T05:30:02.756Z,9.70
2019-03-29T05:32:30.718Z,9.70
2019-03-29T05:34:59.223Z,9.80
2019-03-29T05:37:27.297Z,9.80
2019-03-29T05:39:55.325Z,9.90
2019-03-29T05:42:23.743Z,9.80
2019-03-29T05:44:51.571Z,9.90
2019-03-29T05:47:19.691Z,9.90
2019-03-29T05:49:47.792Z,10.00
2019-03-29T05:52:15.735Z,10.00
2019-03-29T05:54:43.716Z,10.00
2019-03-29T05:57:11.822Z,10.10
2019-03-29T05:59:39.942Z,10.10
2019-03-29T06:02:07.811Z,10.20
2019-03-29T06:04:35.734Z,10.30
2019-03-29T06:07:05.253Z,10.40
2019-03-29T06:09:34.962Z,10.40
2019-03-29T06:12:02.750Z,10.50
2019-03-29T06:14:30.663Z,10.40
2019-03-29T06:16:58.506Z,10.50
2019-03-29T06:19:26.404Z,10.50
2019-03-29T06:21:54.314Z,10.50
2019-03-29T06:24:22.292Z,10.60
2019-03-29T06:26:50.265Z,10.70
2019-03-29T06:29:19.841Z,10.70
2019-03-29T06:31:47.816Z,10.70
2019-03-29T06:34:15.903Z,10.70
2019-03-29T06:36:43.910Z,10.70
2019-03-29T06:39:12.041Z,10.80
2019-03-29T06:41:40.057Z,10.80
2019-03-29T06:44:09.387Z,10.80
2019-03-29T06:46:37.388Z,10.80
2019-03-29T06:49:05.407Z,10.90
2019-03-29T06:51:33.680Z,10.90
2019-03-29T06:54:07.457Z,11.10
2019-03-29T06:56:35.715Z,11.10
2019-03-29T06:59:03.944Z,11.20
2019-03-29T07:01:32.126Z,11.30
2019-03-29T07:04:00.360Z,11.30
2019-03-29T07:06:30.580Z,11.30
2019-03-29T07:08:58.177Z,11.40
2019-03-29T07:11:26.516Z,11.50
2019-03-29T07:13:57.806Z,11.50
2019-03-29T07:16:25.866Z,11.60
2019-03-29T07:18:54.142Z,11.70
2019-03-29T07:21:22.468Z,11.70
2019-03-29T07:23:54.780Z,11.60
2019-03-29T07:26:22.907Z,11.70
2019-03-29T07:28:51.003Z,11.70
2019-03-29T07:31:19.319Z,11.70
2019-03-29T07:33:50.403Z,11.70
2019-03-29T07:36:18.866Z,11.70
2019-03-29T07:38:48.671Z,11.80
2019-03-29T07:41:31.199Z,11.80
2019-03-29T07:43:47.895Z,11.90
2019-03-29T07:46:16.423Z,11.80
2019-03-29T07:48:44.445Z,11.90
2019-03-29T07:51:12.614Z,11.90
2019-03-29T07:53:44.782Z,12.00
2019-03-29T07:56:11.806Z,12.10
2019-03-29T07:58:40.187Z,12.20
2019-03-29T08:01:08.754Z,12.10
2019-03-29T08:03:38.380Z,12.10
2019-03-29T08:06:06.315Z,12.10
2019-03-29T08:08:34.753Z,12.00
2019-03-29T08:11:03.775Z,12.10
2019-03-29T08:13:35.798Z,12.00
2019-03-29T08:16:07.292Z,12.10
2019-03-29T08:18:35.415Z,12.20
2019-03-29T08:21:03.627Z,12.20
2019-03-29T08:23:31.979Z,12.30
2019-03-29T08:26:01.994Z,12.30
2019-03-29T08:28:30.086Z,12.30
2019-03-29T08:30:58.037Z,12.40
2019-03-29T08:33:26.007Z,12.50
2019-03-29T08:35:56.138Z,12.60
2019-03-29T08:38:24.006Z,12.60
2019-03-29T08:40:52.303Z,12.60
2019-03-29T08:43:20.529Z,12.60
2019-03-29T08:45:48.701Z,12.70
2019-03-29T08:48:16.591Z,12.80
2019-03-29T08:50:44.714Z,13.00
2019-03-29T08:53:14.023Z,13.10
2019-03-29T08:55:45.934Z,13.30
2019-03-29T08:58:11.832Z,13.40
2019-03-29T09:00:39.751Z,13.60
2019-03-29T09:03:11.904Z,13.70
2019-03-29T09:05:44.642Z,13.80
2019-03-29T09:08:12.848Z,13.90
2019-03-29T09:10:40.747Z,14.10
2019-03-29T09:13:10.537Z,14.30
2019-03-29T09:15:39.528Z,14.30
2019-03-29T09:18:07.632Z,14.40
2019-03-29T09:20:35.778Z,14.40
2019-03-29T09:23:06.300Z,14.30
2019-03-29T09:25:34.918Z,14.40
2019-03-29T09:28:03.024Z,14.30
2019-03-29T09:30:32.136Z,14.40
2019-03-29T09:33:01.010Z,14.60
2019-03-29T09:35:29.710Z,14.80
2019-03-29T09:37:58.667Z,14.90
2019-03-29T09:40:30.059Z,14.90
2019-03-29T09:43:08.825Z,14.80
2019-03-29T09:45:31.947Z,14.80
2019-03-29T09:48:00.597Z,14.90
2019-03-29T09:50:29.240Z,15.10
2019-03-29T09:53:01.003Z,15.10
2019-03-29T09:55:31.474Z,15.00
2019-03-29T09:58:01.664Z,15.00
2019-03-29T10:00:30.306Z,15.20
2019-03-29T10:03:00.900Z,15.30
2019-03-29T10:05:31.475Z,15.30
2019-03-29T10:08:05.643Z,15.20
2019-03-29T10:10:37.371Z,15.10
2019-03-29T10:13:05.630Z,15.00
2019-03-29T10:15:33.769Z,14.80
2019-03-29T10:18:01.775Z,14.80
2019-03-29T10:20:29.957Z,14.90
2019-03-29T10:22:58.716Z,14.90
2019-03-29T10:25:28.900Z,15.10
2019-03-29T10:28:00.646Z,15.20
2019-03-29T10:30:38.410Z,15.40
2019-03-29T10:33:07.327Z,15.60
2019-03-29T10:35:50.969Z,15.90
2019-03-29T10:38:09.343Z,16.10
2019-03-29T10:40:38.440Z,16.20
2019-03-29T10:43:07.601Z,16.30
2019-03-29T10:45:40.053Z,16.60
2019-03-29T10:48:09.078Z,16.70
2019-03-29T10:50:39.137Z,16.80
2019-03-29T10:53:07.993Z,16.90
2019-03-29T10:55:39.855Z,17.00
2019-03-29T10:58:11.705Z,17.00
2019-03-29T11:00:46.261Z,16.80
2019-03-29T11:03:23.001Z,16.60
2019-03-29T11:05:53.583Z,16.60
2019-03-29T11:08:25.074Z,16.60
2019-03-29T11:10:55.197Z,16.60
2019-03-29T11:13:24.169Z,16.40
2019-03-29T11:15:54.715Z,16.50
2019-03-29T11:18:30.591Z,16.50
2019-03-29T11:21:03.735Z,16.60
2019-03-29T11:23:33.492Z,16.50
2019-03-29T11:26:02.645Z,16.40
2019-03-29T11:28:32.779Z,16.30
2019-03-29T11:31:02.071Z,16.30
2019-03-29T11:33:31.021Z,16.30
2019-03-29T11:36:00.182Z,16.40
2019-03-29T11:38:31.417Z,16.50
2019-03-29T11:41:00.089Z,16.60
2019-03-29T11:43:30.935Z,16.60
2019-03-29T11:46:00.713Z,16.60
2019-03-29T11:48:30.248Z,16.70
2019-03-29T11:51:00.697Z,16.90
2019-03-29T11:53:31.141Z,17.00
2019-03-29T11:56:03.156Z,17.10
2019-03-29T11:58:34.975Z,17.20
2019-03-29T12:01:06.938Z,17.40
2019-03-29T12:03:35.804Z,17.60
2019-03-29T12:06:04.779Z,17.80
2019-03-29T12:08:34.113Z,17.70
2019-03-29T12:11:06.822Z,17.70
2019-03-29T12:13:41.261Z,17.50
2019-03-29T12:16:07.683Z,17.40
2019-03-29T12:18:36.628Z,17.50
2019-03-29T12:21:05.369Z,17.60
2019-03-29T12:23:35.884Z,17.70
2019-03-29T12:26:06.518Z,17.80
2019-03-29T12:28:38.114Z,17.90
2019-03-29T12:31:07.305Z,18.00
2019-03-29T12:33:36.415Z,18.10
2019-03-29T12:36:08.845Z,18.00
2019-03-29T12:38:38.853Z,17.80
2019-03-29T12:41:07.802Z,17.80
2019-03-29T12:43:54.634Z,17.90
2019-03-29T12:46:14.360Z,18.00
2019-03-29T12:48:43.224Z,17.90
2019-03-29T12:51:13.851Z,17.90
2019-03-29T12:53:45.276Z,17.90
2019-03-29T12:56:14.543Z,17.70
2019-03-29T12:58:43.383Z,17.60
2019-03-29T13:01:13.013Z,17.60
2019-03-29T13:03:43.302Z,17.60
2019-03-29T13:06:12.672Z,17.70
2019-03-29T13:08:42.909Z,17.60
2019-03-29T13:11:12.624Z,17.70
2019-03-29T13:13:42.880Z,17.70
2019-03-29T13:16:13.474Z,17.70
2019-03-29T13:18:44.112Z,17.70
2019-03-29T13:21:13.072Z,17.60
2019-03-29T13:23:42.051Z,17.50
2019-03-29T13:26:11.292Z,17.50
2019-03-29T13:28:41.874Z,17.50
2019-03-29T13:31:10.970Z,17.50
2019-03-29T13:33:40.142Z,17.50
2019-03-29T13:36:09.542Z,17.40
2019-03-29T13:38:41.972Z,17.30
2019-03-29T13:41:11.898Z,17.20
2019-03-29T13:43:41.004Z,17.10
2019-03-29T13:46:11.231Z,16.90
2019-03-29T13:48:40.531Z,16.70
2019-03-29T13:51:12.354Z,16.50
2019-03-29T13:53:44.054Z,16.40
2019-03-29T13:56:13.091Z,16.20
2019-03-29T13:58:41.407Z,16.00
2019-03-29T14:01:10.287Z,15.80
2019-03-29T14:03:38.446Z,15.60
2019-03-29T14:06:07.873Z,15.50
2019-03-29T14:08:37.037Z,15.40
2019-03-29T14:11:06.822Z,15.30
2019-03-29T14:13:36.591Z,15.20
2019-03-29T14:16:05.060Z,15.10
2019-03-29T14:18:33.320Z,15.10
2019-03-29T14:21:01.604Z,15.10
2019-03-29T14:23:29.635Z,15.00
2019-03-29T14:25:57.604Z,15.00
2019-03-29T14:28:28.065Z,15.00
2019-03-29T14:30:57.083Z,15.10
2019-03-29T14:33:25.970Z,15.20
2019-03-29T14:35:54.213Z,15.20
2019-03-29T14:38:26.179Z,15.30
2019-03-29T14:40:54.127Z,15.30
2019-03-29T14:43:22.376Z,15.30
2019-03-29T14:45:52.156Z,15.30
2019-03-29T14:48:20.763Z,15.20
2019-03-29T14:50:48.732Z,15.20
2019-03-29T14:53:17.134Z,15.10
2019-03-29T14:55:47.133Z,15.10
2019-03-29T14:58:15.380Z,15.10
2019-03-29T15:00:48.247Z,15.00
2019-03-29T15:03:14.413Z,15.00
2019-03-29T15:05:45.316Z,15.00
2019-03-29T15:08:14.826Z,14.90
2019-03-29T15:10:45.613Z,14.90
2019-03-29T15:13:13.053Z,14.80
2019-03-29T15:15:41.113Z,14.70
2019-03-29T15:18:11.260Z,14.60
2019-03-29T15:20:52.767Z,14.60
2019-03-29T15:23:12.473Z,14.60
2019-03-29T15:25:40.973Z,14.50
2019-03-29T15:28:10.880Z,14.50
2019-03-29T15:30:39.285Z,14.40
2019-03-29T15:33:07.744Z,14.40
2019-03-29T15:35:35.869Z,14.30
2019-03-29T15:38:04.038Z,14.20
2019-03-29T15:40:32.551Z,14.20
2019-03-29T15:43:00.608Z,14.10
2019-03-29T15:45:29.587Z,14.10
2019-03-29T15:47:57.962Z,14.10
2019-03-29T15:50:26.123Z,14.10
2019-03-29T15:52:54.380Z,14.10
2019-03-29T15:55:23.864Z,14.10
2019-03-29T15:57:53.718Z,14.00
2019-03-29T16:00:22.327Z,14.00
2019-03-29T16:03:02.515Z,13.90
2019-03-29T16:05:31.909Z,13.90
2019-03-29T16:07:59.979Z,13.90
2019-03-29T16:10:28.321Z,13.90
2019-03-29T16:12:56.966Z,13.90
2019-03-29T16:15:34.205Z,13.90
2019-03-29T16:17:54.931Z,13.80
2019-03-29T16:20:23.235Z,13.80
2019-03-29T16:22:51.867Z,13.80
2019-03-29T16:25:19.859Z,13.80
2019-03-29T16:28:01.087Z,13.70
2019-03-29T16:30:32.095Z,13.70
2019-03-29T16:33:01.001Z,13.70
2019-03-29T16:35:29.291Z,13.60
2019-03-29T16:37:57.882Z,13.60
2019-03-29T16:40:25.942Z,13.60
2019-03-29T16:42:55.466Z,13.60
2019-03-29T16:45:23.603Z,13.50
2019-03-29T16:47:51.970Z,13.50
2019-03-29T16:50:19.912Z,13.40
2019-03-29T16:52:48.150Z,13.40
2019-03-29T16:55:17.477Z,13.30
2019-03-29T16:57:45.601Z,13.30
2019-03-29T17:00:13.898Z,13.20
2019-03-29T17:02:42.132Z,13.20
2019-03-29T17:05:10.431Z,13.10
2019-03-29T17:07:38.573Z,13.20
2019-03-29T17:10:06.889Z,13.10
2019-03-29T17:12:36.329Z,13.10
2019-03-29T17:15:05.306Z,13.00
2019-03-29T17:17:33.769Z,13.00
2019-03-29T17:20:03.201Z,12.90
2019-03-29T17:22:31.162Z,12.90
2019-03-29T17:25:00.359Z,12.90
2019-03-29T17:27:31.096Z,12.80
2019-03-29T17:30:04.015Z,12.80
2019-03-29T17:32:33.159Z,12.70
2019-03-29T17:35:01.716Z,12.70
2019-03-29T17:37:31.572Z,12.70
2019-03-29T17:40:04.135Z,12.60
2019-03-29T17:42:33.969Z,12.60
2019-03-29T17:45:02.232Z,12.60
2019-03-29T17:47:30.507Z,12.50
2019-03-29T17:50:01.640Z,12.50
2019-03-29T17:52:29.956Z,12.50
2019-03-29T17:54:58.125Z,12.40
2019-03-29T17:57:27.776Z,12.40
2019-03-29T17:59:56.065Z,12.40
2019-03-29T18:02:24.543Z,12.40
2019-03-29T18:04:52.656Z,12.40
2019-03-29T18:07:20.656Z,12.40
2019-03-29T18:09:48.661Z,12.40
2019-03-29T18:12:17.252Z,12.30
2019-03-29T18:14:48.238Z,12.30
2019-03-29T18:17:16.693Z,12.30
2019-03-29T18:19:44.685Z,12.30
2019-03-29T18:22:15.385Z,12.20
2019-03-29T18:24:43.731Z,12.20
2019-03-29T18:27:12.127Z,12.20
2019-03-29T18:29:40.432Z,12.20
2019-03-29T18:32:08.667Z,12.20
2019-03-29T18:34:41.424Z,12.20
2019-03-29T18:37:08.847Z,12.20
2019-03-29T18:39:38.987Z,12.20
2019-03-29T18:42:07.039Z,12.20
2019-03-29T18:44:35.563Z,12.20
2019-03-29T18:47:03.463Z,12.10
2019-03-29T18:49:31.716Z,12.10
2019-03-29T18:52:01.017Z,12.10
2019-03-29T18:54:29.268Z,12.10
2019-03-29T18:56:57.441Z,12.10
2019-03-29T18:59:25.377Z,12.00
2019-03-29T19:01:54.533Z,12.00
2019-03-29T19:04:22.795Z,12.00
2019-03-29T19:06:54.532Z,12.00
2019-03-29T19:09:24.202Z,12.00
2019-03-29T19:11:53.996Z,12.00
2019-03-29T19:14:22.001Z,12.00
2019-03-29T19:16:58.801Z,12.00
2019-03-29T19:19:19.607Z,12.00
2019-03-29T19:21:48.822Z,11.90
2019-03-29T19:24:16.865Z,11.90
2019-03-29T19:26:46.057Z,11.90
2019-03-29T19:29:14.313Z,11.80
2019-03-29T19:31:42.450Z,11.80
2019-03-29T19:34:10.948Z,11.80
2019-03-29T19:36:40.304Z,11.80
2019-03-29T19:39:08.201Z,11.80
2019-03-29T19:41:37.926Z,11.70
2019-03-29T19:44:06.016Z,11.70
2019-03-29T19:46:34.025Z,11.70
2019-03-29T19:49:01.943Z,11.70
2019-03-29T19:51:32.403Z,11.60
2019-03-29T19:54:07.318Z,11.60
2019-03-29T19:56:30.079Z,11.60
2019-03-29T19:58:59.957Z,11.60
2019-03-29T20:01:28.074Z,11.60
2019-03-29T20:03:57.056Z,11.50
2019-03-29T20:06:25.853Z,11.50
2019-03-29T20:08:54.101Z,11.50
2019-03-29T20:11:22.222Z,11.50
2019-03-29T20:13:50.284Z,11.50
2019-03-29T20:16:18.189Z,11.50
2019-03-29T20:18:46.631Z,11.40
2019-03-29T20:21:14.907Z,11.50
2019-03-29T20:23:43.575Z,11.40
2019-03-29T20:26:13.393Z,11.40
2019-03-29T20:28:41.458Z,11.40
2019-03-29T20:31:09.647Z,11.40
2019-03-29T20:33:39.346Z,11.30
2019-03-29T20:36:07.599Z,11.30
2019-03-29T20:38:35.686Z,11.20
2019-03-29T20:41:03.813Z,11.20
2019-03-29T20:43:31.748Z,11.30
2019-03-29T20:46:00.129Z,11.20
2019-03-29T20:48:28.263Z,11.20
2019-03-29T20:50:56.326Z,11.20
2019-03-29T20:53:26.061Z,11.20
2019-03-29T20:55:54.046Z,11.20
2019-03-29T20:58:22.012Z,11.20
2019-03-29T21:00:49.929Z,11.10
2019-03-29T21:03:17.758Z,11.10
2019-03-29T21:05:46.008Z,11.10
2019-03-29T21:08:14.333Z,11.10
2019-03-29T21:10:54.803Z,11.10
2019-03-29T21:13:11.994Z,11.10
2019-03-29T21:15:40.361Z,11.10
2019-03-29T21:18:08.708Z,11.10
2019-03-29T21:20:36.773Z,11.10
2019-03-29T21:23:05.071Z,11.10
2019-03-29T21:25:33.346Z,11.00
2019-03-29T21:28:01.341Z,11.10
2019-03-29T21:30:29.197Z,11.10
2019-03-29T21:32:59.005Z,11.00
2019-03-29T21:35:26.713Z,11.00
2019-03-29T21:37:54.801Z,11.00
2019-03-29T21:40:24.474Z,11.00
2019-03-29T21:42:53.550Z,11.00
2019-03-29T21:45:28.667Z,11.00
2019-03-29T21:48:01.991Z,10.90
2019-03-29T21:50:20.809Z,10.90
2019-03-29T21:52:48.749Z,10.90
2019-03-29T21:55:18.254Z,10.90
2019-03-29T21:57:48.916Z,10.90
2019-03-29T22:00:16.860Z,10.90
2019-03-29T22:02:45.690Z,10.90
2019-03-29T22:05:13.799Z,10.90
2019-03-29T22:07:41.785Z,10.80
2019-03-29T22:10:10.488Z,10.80
2019-03-29T22:12:38.906Z,10.80
2019-03-29T22:15:07.289Z,10.70
2019-03-29T22:17:35.368Z,10.70
2019-03-29T22:20:04.329Z,10.70
2019-03-29T22:22:32.396Z,10.70
2019-03-29T22:25:00.307Z,10.70
2019-03-29T22:27:28.906Z,10.60
2019-03-29T22:29:57.152Z,10.60
2019-03-29T22:32:27.091Z,10.60
2019-03-29T22:34:55.191Z,10.60
2019-03-29T22:37:23.182Z,10.60
2019-03-29T22:39:51.247Z,10.60
2019-03-29T22:42:19.228Z,10.60
2019-03-29T22:44:47.275Z,10.70
2019-03-29T22:47:15.425Z,10.70
2019-03-29T22:49:44.913Z,10.70
2019-03-29T22:52:13.585Z,10.70
2019-03-29T22:54:41.484Z,10.70
2019-03-29T22:57:09.435Z,10.70
2019-03-29T22:59:37.413Z,10.70
2019-03-29T23:02:05.474Z,10.70
2019-03-29T23:04:33.317Z,10.70
2019-03-29T23:07:01.262Z,10.70
2019-03-29T23:09:29.590Z,10.70
2019-03-29T23:11:57.511Z,10.70
2019-03-29T23:14:25.393Z,10.70
2019-03-29T23:16:53.761Z,10.70
2019-03-29T23:19:21.829Z,10.70
2019-03-29T23:21:49.662Z,10.70
2019-03-29T23:24:18.717Z,10.60
2019-03-29T23:26:47.191Z,10.50
2019-03-29T23:29:15.751Z,10.40
2019-03-29T23:31:45.861Z,10.20
2019-03-29T23:34:13.787Z,10.10
2019-03-29T23:36:42.724Z,9.90
2019-03-29T23:39:12.438Z,9.80
2019-03-29T23:41:40.522Z,9.70
2019-03-29T23:44:09.559Z,9.60
2019-03-29T23:46:38.571Z,9.50
2019-03-29T23:49:20.249Z,9.40
2019-03-29T23:51:49.697Z,9.30
2019-03-29T23:54:17.616Z,9.20
2019-03-29T23:56:47.798Z,9.20
2019-03-29T23:59:15.892Z,9.10
